sensor_id;sensor_type;location;lat;lon;timestamp;P1;durP1;ratioP1;P2;durP2;ratioP2
47866;SDS011;33628;50.806;11.586;2023-08-17T00:00:02;18.15;;;11.77;;
47866;SDS011;33628;50.806;11.586;2023-08-17T00:02:31;14.68;;;11.93;;
47866;SDS011;33628;50.806;11.586;2023-08-17T00:04:58;18.55;;;11.85;;
47866;SDS011;33628;50.806;11.586;2023-08-17T00:07:26;15.23;;;12.88;;
47866;SDS011;33628;50.806;11.586;2023-08-17T00:09:53;14.43;;;11.43;;
47866;SDS011;33628;50.806;11.586;2023-08-17T00:12:20;13.27;;;10.80;;
47866;SDS011;33628;50.806;11.586;2023-08-17T00:14:48;14.73;;;10.60;;
47866;SDS011;33628;50.806;11.586;2023-08-17T00:17:15;13.50;;;10.80;;
47866;SDS011;33628;50.806;11.586;2023-08-17T00:19:42;13.25;;;11.18;;
47866;SDS011;33628;50.806;11.586;2023-08-17T00:22:10;16.42;;;11.70;;
47866;SDS011;33628;50.806;11.586;2023-08-17T00:24:38;19.60;;;12.32;;
47866;SDS011;33628;50.806;11.586;2023-08-17T00:27:07;22.70;;;12.27;;
47866;SDS011;33628;50.806;11.586;2023-08-17T00:29:34;17.55;;;13.05;;
47866;SDS011;33628;50.806;11.586;2023-08-17T00:32:01;17.08;;;11.18;;
47866;SDS011;33628;50.806;11.586;2023-08-17T00:34:29;14.77;;;10.80;;
47866;SDS011;33628;50.806;11.586;2023-08-17T00:36:55;12.98;;;11.23;;
47866;SDS011;33628;50.806;11.586;2023-08-17T00:39:24;14.32;;;10.07;;
47866;SDS011;33628;50.806;11.586;2023-08-17T00:41:57;11.73;;;10.07;;
47866;SDS011;33628;50.806;11.586;2023-08-17T00:44:24;14.30;;;10.60;;
47866;SDS011;33628;50.806;11.586;2023-08-17T00:46:54;18.20;;;12.52;;
47866;SDS011;33628;50.806;11.586;2023-08-17T00:49:21;17.08;;;13.27;;
47866;SDS011;33628;50.806;11.586;2023-08-17T00:51:48;17.95;;;13.15;;
47866;SDS011;33628;50.806;11.586;2023-08-17T00:54:15;15.63;;;12.55;;
47866;SDS011;33628;50.806;11.586;2023-08-17T00:56:51;16.65;;;13.90;;
47866;SDS011;33628;50.806;11.586;2023-08-17T00:59:19;17.95;;;13.73;;
47866;SDS011;33628;50.806;11.586;2023-08-17T01:01:46;14.20;;;11.90;;
47866;SDS011;33628;50.806;11.586;2023-08-17T01:04:13;16.55;;;11.68;;
47866;SDS011;33628;50.806;11.586;2023-08-17T01:06:40;7.35;;;6.53;;
47866;SDS011;33628;50.806;11.586;2023-08-17T01:09:07;11.07;;;9.73;;
47866;SDS011;33628;50.806;11.586;2023-08-17T01:11:35;11.07;;;9.98;;
47866;SDS011;33628;50.806;11.586;2023-08-17T01:14:08;8.98;;;7.03;;
47866;SDS011;33628;50.806;11.586;2023-08-17T01:16:38;7.93;;;7.03;;
47866;SDS011;33628;50.806;11.586;2023-08-17T01:19:08;10.55;;;6.15;;
47866;SDS011;33628;50.806;11.586;2023-08-17T01:21:37;6.38;;;5.00;;
47866;SDS011;33628;50.806;11.586;2023-08-17T01:24:10;3.05;;;2.40;;
47866;SDS011;33628;50.806;11.586;2023-08-17T01:26:37;2.55;;;1.85;;
47866;SDS011;33628;50.806;11.586;2023-08-17T01:29:04;4.63;;;2.10;;
47866;SDS011;33628;50.806;11.586;2023-08-17T01:31:31;5.03;;;2.60;;
47866;SDS011;33628;50.806;11.586;2023-08-17T01:34:03;8.32;;;3.72;;
47866;SDS011;33628;50.806;11.586;2023-08-17T01:36:32;5.25;;;2.83;;
47866;SDS011;33628;50.806;11.586;2023-08-17T01:39:02;6.38;;;3.17;;
47866;SDS011;33628;50.806;11.586;2023-08-17T01:41:31;7.57;;;2.50;;
47866;SDS011;33628;50.806;11.586;2023-08-17T01:43:58;4.90;;;2.20;;
47866;SDS011;33628;50.806;11.586;2023-08-17T01:46:29;4.88;;;2.28;;
47866;SDS011;33628;50.806;11.586;2023-08-17T01:49:00;7.22;;;2.60;;
47866;SDS011;33628;50.806;11.586;2023-08-17T01:51:27;4.32;;;2.33;;
47866;SDS011;33628;50.806;11.586;2023-08-17T01:53:54;6.90;;;2.30;;
47866;SDS011;33628;50.806;11.586;2023-08-17T01:56:20;4.13;;;2.40;;
47866;SDS011;33628;50.806;11.586;2023-08-17T01:58:48;4.68;;;2.35;;
47866;SDS011;33628;50.806;11.586;2023-08-17T02:01:15;6.55;;;3.45;;
47866;SDS011;33628;50.806;11.586;2023-08-17T02:03:41;5.05;;;3.17;;
47866;SDS011;33628;50.806;11.586;2023-08-17T02:06:09;3.40;;;3.00;;
47866;SDS011;33628;50.806;11.586;2023-08-17T02:08:37;7.68;;;3.33;;
47866;SDS011;33628;50.806;11.586;2023-08-17T02:11:04;7.53;;;2.90;;
47866;SDS011;33628;50.806;11.586;2023-08-17T02:13:30;5.38;;;3.58;;
47866;SDS011;33628;50.806;11.586;2023-08-17T02:16:05;7.20;;;3.58;;
47866;SDS011;33628;50.806;11.586;2023-08-17T02:18:32;7.35;;;4.03;;
47866;SDS011;33628;50.806;11.586;2023-08-17T02:21:00;7.25;;;3.25;;
47866;SDS011;33628;50.806;11.586;2023-08-17T02:23:28;4.97;;;2.90;;
47866;SDS011;33628;50.806;11.586;2023-08-17T02:25:55;11.88;;;2.97;;
47866;SDS011;33628;50.806;11.586;2023-08-17T02:28:22;18.80;;;3.28;;
47866;SDS011;33628;50.806;11.586;2023-08-17T02:30:48;6.70;;;2.97;;
47866;SDS011;33628;50.806;11.586;2023-08-17T02:33:18;5.82;;;2.90;;
47866;SDS011;33628;50.806;11.586;2023-08-17T02:35:47;6.65;;;2.65;;
47866;SDS011;33628;50.806;11.586;2023-08-17T02:38:14;7.82;;;2.70;;
47866;SDS011;33628;50.806;11.586;2023-08-17T02:40:41;7.82;;;2.80;;
47866;SDS011;33628;50.806;11.586;2023-08-17T02:43:08;5.50;;;2.40;;
47866;SDS011;33628;50.806;11.586;2023-08-17T02:45:34;9.60;;;2.67;;
47866;SDS011;33628;50.806;11.586;2023-08-17T02:48:01;17.63;;;4.03;;
47866;SDS011;33628;50.806;11.586;2023-08-17T02:50:29;5.72;;;3.20;;
47866;SDS011;33628;50.806;11.586;2023-08-17T02:52:56;9.35;;;3.45;;
47866;SDS011;33628;50.806;11.586;2023-08-17T02:55:23;4.90;;;2.50;;
47866;SDS011;33628;50.806;11.586;2023-08-17T02:57:49;4.68;;;3.00;;
47866;SDS011;33628;50.806;11.586;2023-08-17T03:00:16;7.38;;;2.20;;
47866;SDS011;33628;50.806;11.586;2023-08-17T03:02:43;6.18;;;3.00;;
47866;SDS011;33628;50.806;11.586;2023-08-17T03:05:09;8.60;;;3.25;;
47866;SDS011;33628;50.806;11.586;2023-08-17T03:07:37;5.20;;;3.47;;
47866;SDS011;33628;50.806;11.586;2023-08-17T03:10:04;8.73;;;3.97;;
47866;SDS011;33628;50.806;11.586;2023-08-17T03:12:31;6.15;;;3.42;;
47866;SDS011;33628;50.806;11.586;2023-08-17T03:14:58;8.07;;;2.88;;
47866;SDS011;33628;50.806;11.586;2023-08-17T03:17:25;3.22;;;2.60;;
47866;SDS011;33628;50.806;11.586;2023-08-17T03:19:52;6.28;;;2.28;;
47866;SDS011;33628;50.806;11.586;2023-08-17T03:22:18;3.47;;;2.25;;
47866;SDS011;33628;50.806;11.586;2023-08-17T03:24:46;3.97;;;2.08;;
47866;SDS011;33628;50.806;11.586;2023-08-17T03:27:15;3.20;;;2.10;;
47866;SDS011;33628;50.806;11.586;2023-08-17T03:29:42;2.40;;;1.63;;
47866;SDS011;33628;50.806;11.586;2023-08-17T03:32:09;3.90;;;1.80;;
47866;SDS011;33628;50.806;11.586;2023-08-17T03:34:35;5.57;;;2.10;;
47866;SDS011;33628;50.806;11.586;2023-08-17T03:37:03;3.55;;;2.00;;
47866;SDS011;33628;50.806;11.586;2023-08-17T03:39:30;5.30;;;2.35;;
47866;SDS011;33628;50.806;11.586;2023-08-17T03:41:58;4.30;;;2.38;;
47866;SDS011;33628;50.806;11.586;2023-08-17T03:44:25;4.15;;;2.70;;
47866;SDS011;33628;50.806;11.586;2023-08-17T03:46:52;4.75;;;3.08;;
47866;SDS011;33628;50.806;11.586;2023-08-17T03:49:19;6.10;;;2.90;;
47866;SDS011;33628;50.806;11.586;2023-08-17T03:51:46;4.95;;;2.60;;
47866;SDS011;33628;50.806;11.586;2023-08-17T03:54:13;4.63;;;2.60;;
47866;SDS011;33628;50.806;11.586;2023-08-17T03:56:40;7.05;;;2.40;;
47866;SDS011;33628;50.806;11.586;2023-08-17T03:59:08;4.57;;;2.42;;
47866;SDS011;33628;50.806;11.586;2023-08-17T04:01:35;10.13;;;2.30;;
47866;SDS011;33628;50.806;11.586;2023-08-17T04:04:01;3.30;;;1.92;;
47866;SDS011;33628;50.806;11.586;2023-08-17T04:06:28;2.75;;;1.92;;
47866;SDS011;33628;50.806;11.586;2023-08-17T04:08:56;5.85;;;2.30;;
47866;SDS011;33628;50.806;11.586;2023-08-17T04:11:23;4.72;;;2.53;;
47866;SDS011;33628;50.806;11.586;2023-08-17T04:13:50;2.75;;;2.28;;
47866;SDS011;33628;50.806;11.586;2023-08-17T04:16:20;5.03;;;2.58;;
47866;SDS011;33628;50.806;11.586;2023-08-17T04:18:47;3.58;;;2.50;;
47866;SDS011;33628;50.806;11.586;2023-08-17T04:21:14;4.20;;;2.00;;
47866;SDS011;33628;50.806;11.586;2023-08-17T04:23:41;4.80;;;2.38;;
47866;SDS011;33628;50.806;11.586;2023-08-17T04:26:09;4.40;;;2.83;;
47866;SDS011;33628;50.806;11.586;2023-08-17T04:28:36;4.70;;;2.60;;
47866;SDS011;33628;50.806;11.586;2023-08-17T04:31:04;4.35;;;2.78;;
47866;SDS011;33628;50.806;11.586;2023-08-17T04:33:36;6.25;;;2.72;;
47866;SDS011;33628;50.806;11.586;2023-08-17T04:36:06;6.68;;;3.17;;
47866;SDS011;33628;50.806;11.586;2023-08-17T04:38:33;5.35;;;3.33;;
47866;SDS011;33628;50.806;11.586;2023-08-17T04:41:00;3.83;;;2.95;;
47866;SDS011;33628;50.806;11.586;2023-08-17T04:43:28;3.92;;;3.38;;
47866;SDS011;33628;50.806;11.586;2023-08-17T04:45:54;4.47;;;3.00;;
47866;SDS011;33628;50.806;11.586;2023-08-17T04:48:24;6.40;;;3.50;;
47866;SDS011;33628;50.806;11.586;2023-08-17T04:50:53;8.85;;;4.05;;
47866;SDS011;33628;50.806;11.586;2023-08-17T04:53:20;4.15;;;3.58;;
47866;SDS011;33628;50.806;11.586;2023-08-17T04:55:49;4.82;;;3.58;;
47866;SDS011;33628;50.806;11.586;2023-08-17T04:58:16;4.45;;;3.47;;
47866;SDS011;33628;50.806;11.586;2023-08-17T05:00:43;5.50;;;3.85;;
47866;SDS011;33628;50.806;11.586;2023-08-17T05:03:10;5.57;;;4.22;;
47866;SDS011;33628;50.806;11.586;2023-08-17T05:05:41;4.65;;;3.85;;
47866;SDS011;33628;50.806;11.586;2023-08-17T05:08:11;9.43;;;3.70;;
47866;SDS011;33628;50.806;11.586;2023-08-17T05:10:41;5.10;;;3.42;;
47866;SDS011;33628;50.806;11.586;2023-08-17T05:13:08;7.85;;;3.75;;
47866;SDS011;33628;50.806;11.586;2023-08-17T05:15:37;4.00;;;3.60;;
47866;SDS011;33628;50.806;11.586;2023-08-17T05:18:07;4.93;;;4.35;;
47866;SDS011;33628;50.806;11.586;2023-08-17T05:20:35;4.75;;;3.70;;
47866;SDS011;33628;50.806;11.586;2023-08-17T05:23:02;5.00;;;3.88;;
47866;SDS011;33628;50.806;11.586;2023-08-17T05:25:31;6.47;;;3.83;;
47866;SDS011;33628;50.806;11.586;2023-08-17T05:27:58;4.65;;;3.40;;
47866;SDS011;33628;50.806;11.586;2023-08-17T05:30:28;4.47;;;3.20;;
47866;SDS011;33628;50.806;11.586;2023-08-17T05:32:55;4.40;;;3.35;;
47866;SDS011;33628;50.806;11.586;2023-08-17T05:35:23;6.25;;;3.42;;
47866;SDS011;33628;50.806;11.586;2023-08-17T05:37:50;4.10;;;3.60;;
47866;SDS011;33628;50.806;11.586;2023-08-17T05:40:17;5.70;;;3.65;;
47866;SDS011;33628;50.806;11.586;2023-08-17T05:42:46;5.80;;;3.63;;
47866;SDS011;33628;50.806;11.586;2023-08-17T05:45:14;6.75;;;4.13;;
47866;SDS011;33628;50.806;11.586;2023-08-17T05:47:41;5.03;;;3.53;;
47866;SDS011;33628;50.806;11.586;2023-08-17T05:50:09;4.65;;;3.70;;
47866;SDS011;33628;50.806;11.586;2023-08-17T05:52:35;4.35;;;3.45;;
47866;SDS011;33628;50.806;11.586;2023-08-17T05:55:03;5.10;;;3.40;;
47866;SDS011;33628;50.806;11.586;2023-08-17T05:57:31;6.60;;;3.05;;
47866;SDS011;33628;50.806;11.586;2023-08-17T05:59:59;3.50;;;2.83;;
47866;SDS011;33628;50.806;11.586;2023-08-17T06:02:26;4.57;;;2.75;;
47866;SDS011;33628;50.806;11.586;2023-08-17T06:04:53;3.92;;;2.30;;
47866;SDS011;33628;50.806;11.586;2023-08-17T06:07:19;4.97;;;2.67;;
47866;SDS011;33628;50.806;11.586;2023-08-17T06:09:46;2.17;;;1.92;;
47866;SDS011;33628;50.806;11.586;2023-08-17T06:12:13;3.28;;;2.13;;
47866;SDS011;33628;50.806;11.586;2023-08-17T06:14:40;5.18;;;2.30;;
47866;SDS011;33628;50.806;11.586;2023-08-17T06:17:09;3.33;;;1.88;;
47866;SDS011;33628;50.806;11.586;2023-08-17T06:19:36;2.50;;;2.00;;
47866;SDS011;33628;50.806;11.586;2023-08-17T06:22:05;3.20;;;1.90;;
47866;SDS011;33628;50.806;11.586;2023-08-17T06:24:34;4.15;;;2.00;;
47866;SDS011;33628;50.806;11.586;2023-08-17T06:27:01;3.95;;;1.70;;
47866;SDS011;33628;50.806;11.586;2023-08-17T06:29:28;4.28;;;1.95;;
47866;SDS011;33628;50.806;11.586;2023-08-17T06:31:55;2.28;;;2.00;;
47866;SDS011;33628;50.806;11.586;2023-08-17T06:34:22;4.13;;;1.95;;
47866;SDS011;33628;50.806;11.586;2023-08-17T06:36:56;3.17;;;1.80;;
47866;SDS011;33628;50.806;11.586;2023-08-17T06:39:24;4.85;;;2.00;;
47866;SDS011;33628;50.806;11.586;2023-08-17T06:41:51;4.43;;;2.00;;
47866;SDS011;33628;50.806;11.586;2023-08-17T06:44:18;3.65;;;1.92;;
47866;SDS011;33628;50.806;11.586;2023-08-17T06:46:45;6.03;;;2.13;;
47866;SDS011;33628;50.806;11.586;2023-08-17T06:49:12;4.13;;;1.60;;
47866;SDS011;33628;50.806;11.586;2023-08-17T06:51:40;2.38;;;2.00;;
47866;SDS011;33628;50.806;11.586;2023-08-17T06:54:06;2.60;;;1.85;;
47866;SDS011;33628;50.806;11.586;2023-08-17T06:56:33;2.45;;;1.95;;
47866;SDS011;33628;50.806;11.586;2023-08-17T06:59:00;2.63;;;1.90;;
47866;SDS011;33628;50.806;11.586;2023-08-17T07:01:27;2.72;;;2.20;;
47866;SDS011;33628;50.806;11.586;2023-08-17T07:03:53;6.05;;;2.10;;
47866;SDS011;33628;50.806;11.586;2023-08-17T07:06:20;5.72;;;2.33;;
47866;SDS011;33628;50.806;11.586;2023-08-17T07:08:48;2.63;;;1.90;;
47866;SDS011;33628;50.806;11.586;2023-08-17T07:11:15;4.03;;;2.08;;
47866;SDS011;33628;50.806;11.586;2023-08-17T07:13:41;2.50;;;1.75;;
47866;SDS011;33628;50.806;11.586;2023-08-17T07:16:08;2.83;;;1.52;;
47866;SDS011;33628;50.806;11.586;2023-08-17T07:18:36;3.17;;;1.77;;
47866;SDS011;33628;50.806;11.586;2023-08-17T07:21:02;2.67;;;1.58;;
47866;SDS011;33628;50.806;11.586;2023-08-17T07:23:29;4.75;;;1.58;;
47866;SDS011;33628;50.806;11.586;2023-08-17T07:25:57;3.75;;;1.30;;
47866;SDS011;33628;50.806;11.586;2023-08-17T07:28:24;7.05;;;1.48;;
47866;SDS011;33628;50.806;11.586;2023-08-17T07:30:51;2.97;;;1.27;;
47866;SDS011;33628;50.806;11.586;2023-08-17T07:33:18;1.60;;;1.48;;
47866;SDS011;33628;50.806;11.586;2023-08-17T07:35:45;2.47;;;1.38;;
47866;SDS011;33628;50.806;11.586;2023-08-17T07:38:11;2.03;;;1.60;;
47866;SDS011;33628;50.806;11.586;2023-08-17T07:40:38;2.47;;;1.55;;
47866;SDS011;33628;50.806;11.586;2023-08-17T07:43:06;3.65;;;1.73;;
47866;SDS011;33628;50.806;11.586;2023-08-17T07:45:33;3.42;;;1.30;;
47866;SDS011;33628;50.806;11.586;2023-08-17T07:48:00;2.45;;;1.23;;
47866;SDS011;33628;50.806;11.586;2023-08-17T07:50:27;1.42;;;1.23;;
47866;SDS011;33628;50.806;11.586;2023-08-17T07:52:53;2.45;;;1.60;;
47866;SDS011;33628;50.806;11.586;2023-08-17T07:55:20;1.75;;;1.38;;
47866;SDS011;33628;50.806;11.586;2023-08-17T07:57:47;3.03;;;1.30;;
47866;SDS011;33628;50.806;11.586;2023-08-17T08:00:16;2.65;;;1.70;;
47866;SDS011;33628;50.806;11.586;2023-08-17T08:02:45;2.13;;;1.40;;
47866;SDS011;33628;50.806;11.586;2023-08-17T08:05:12;1.65;;;1.40;;
47866;SDS011;33628;50.806;11.586;2023-08-17T08:07:40;1.60;;;1.48;;
47866;SDS011;33628;50.806;11.586;2023-08-17T08:10:07;3.75;;;1.55;;
47866;SDS011;33628;50.806;11.586;2023-08-17T08:12:34;1.60;;;1.48;;
47866;SDS011;33628;50.806;11.586;2023-08-17T08:15:01;1.40;;;1.30;;
47866;SDS011;33628;50.806;11.586;2023-08-17T08:17:29;2.55;;;1.45;;
47866;SDS011;33628;50.806;11.586;2023-08-17T08:19:58;2.05;;;1.50;;
47866;SDS011;33628;50.806;11.586;2023-08-17T08:22:25;2.85;;;1.40;;
47866;SDS011;33628;50.806;11.586;2023-08-17T08:24:51;3.40;;;1.70;;
47866;SDS011;33628;50.806;11.586;2023-08-17T08:27:19;2.17;;;1.63;;
47866;SDS011;33628;50.806;11.586;2023-08-17T08:29:46;3.22;;;1.80;;
47866;SDS011;33628;50.806;11.586;2023-08-17T08:32:13;2.42;;;1.63;;
47866;SDS011;33628;50.806;11.586;2023-08-17T08:34:41;4.75;;;2.05;;
47866;SDS011;33628;50.806;11.586;2023-08-17T08:37:07;3.20;;;1.85;;
47866;SDS011;33628;50.806;11.586;2023-08-17T08:39:43;2.90;;;2.13;;
47866;SDS011;33628;50.806;11.586;2023-08-17T08:42:14;1.92;;;1.73;;
47866;SDS011;33628;50.806;11.586;2023-08-17T08:44:41;5.00;;;2.20;;
47866;SDS011;33628;50.806;11.586;2023-08-17T08:47:07;2.67;;;2.03;;
47866;SDS011;33628;50.806;11.586;2023-08-17T08:49:34;3.70;;;1.70;;
47866;SDS011;33628;50.806;11.586;2023-08-17T08:52:06;3.35;;;2.47;;
47866;SDS011;33628;50.806;11.586;2023-08-17T08:54:33;2.60;;;1.80;;
47866;SDS011;33628;50.806;11.586;2023-08-17T08:57:03;6.05;;;1.95;;
47866;SDS011;33628;50.806;11.586;2023-08-17T08:59:33;2.63;;;2.00;;
47866;SDS011;33628;50.806;11.586;2023-08-17T09:02:10;2.08;;;1.80;;
47866;SDS011;33628;50.806;11.586;2023-08-17T09:04:38;3.90;;;2.08;;
47866;SDS011;33628;50.806;11.586;2023-08-17T09:07:06;2.88;;;2.13;;
47866;SDS011;33628;50.806;11.586;2023-08-17T09:09:34;1.50;;;1.40;;
47866;SDS011;33628;50.806;11.586;2023-08-17T09:12:02;3.40;;;1.90;;
47866;SDS011;33628;50.806;11.586;2023-08-17T09:14:30;3.53;;;1.67;;
47866;SDS011;33628;50.806;11.586;2023-08-17T09:16:56;3.20;;;1.35;;
47866;SDS011;33628;50.806;11.586;2023-08-17T09:19:25;1.65;;;1.33;;
47866;SDS011;33628;50.806;11.586;2023-08-17T09:21:52;2.58;;;1.30;;
47866;SDS011;33628;50.806;11.586;2023-08-17T09:24:20;2.13;;;1.40;;
47866;SDS011;33628;50.806;11.586;2023-08-17T09:26:47;3.10;;;1.45;;
47866;SDS011;33628;50.806;11.586;2023-08-17T09:29:16;2.35;;;1.40;;
47866;SDS011;33628;50.806;11.586;2023-08-17T09:31:43;3.80;;;1.55;;
47866;SDS011;33628;50.806;11.586;2023-08-17T09:34:10;4.20;;;1.83;;
47866;SDS011;33628;50.806;11.586;2023-08-17T09:36:38;2.50;;;1.75;;
47866;SDS011;33628;50.806;11.586;2023-08-17T09:39:07;2.22;;;1.65;;
47866;SDS011;33628;50.806;11.586;2023-08-17T09:41:39;2.92;;;1.52;;
47866;SDS011;33628;50.806;11.586;2023-08-17T09:44:07;3.15;;;1.98;;
47866;SDS011;33628;50.806;11.586;2023-08-17T09:46:34;1.80;;;1.65;;
47866;SDS011;33628;50.806;11.586;2023-08-17T09:49:01;2.40;;;1.60;;
47866;SDS011;33628;50.806;11.586;2023-08-17T09:51:30;2.40;;;1.80;;
47866;SDS011;33628;50.806;11.586;2023-08-17T09:53:57;3.35;;;2.40;;
47866;SDS011;33628;50.806;11.586;2023-08-17T09:56:24;3.25;;;2.50;;
47866;SDS011;33628;50.806;11.586;2023-08-17T09:58:54;3.15;;;2.30;;
47866;SDS011;33628;50.806;11.586;2023-08-17T10:01:21;3.20;;;1.98;;
47866;SDS011;33628;50.806;11.586;2023-08-17T10:03:48;3.40;;;2.55;;
47866;SDS011;33628;50.806;11.586;2023-08-17T10:06:17;3.92;;;2.08;;
47866;SDS011;33628;50.806;11.586;2023-08-17T10:08:47;2.40;;;2.20;;
47866;SDS011;33628;50.806;11.586;2023-08-17T10:11:16;3.10;;;2.78;;
47866;SDS011;33628;50.806;11.586;2023-08-17T10:13:48;3.38;;;2.75;;
47866;SDS011;33628;50.806;11.586;2023-08-17T10:16:21;4.55;;;2.28;;
47866;SDS011;33628;50.806;11.586;2023-08-17T10:18:53;6.10;;;2.78;;
47866;SDS011;33628;50.806;11.586;2023-08-17T10:21:23;3.50;;;2.65;;
47866;SDS011;33628;50.806;11.586;2023-08-17T10:23:55;6.22;;;2.67;;
47866;SDS011;33628;50.806;11.586;2023-08-17T10:26:23;3.85;;;2.78;;
47866;SDS011;33628;50.806;11.586;2023-08-17T10:28:54;5.07;;;3.35;;
47866;SDS011;33628;50.806;11.586;2023-08-17T10:31:26;5.00;;;3.83;;
47866;SDS011;33628;50.806;11.586;2023-08-17T10:33:53;4.38;;;3.72;;
47866;SDS011;33628;50.806;11.586;2023-08-17T10:36:20;7.13;;;3.70;;
47866;SDS011;33628;50.806;11.586;2023-08-17T10:38:48;3.78;;;3.38;;
47866;SDS011;33628;50.806;11.586;2023-08-17T10:41:47;4.43;;;4.00;;
47866;SDS011;33628;50.806;11.586;2023-08-17T10:44:14;6.70;;;3.90;;
47866;SDS011;33628;50.806;11.586;2023-08-17T10:46:45;6.50;;;4.65;;
47866;SDS011;33628;50.806;11.586;2023-08-17T10:49:24;5.03;;;4.53;;
47866;SDS011;33628;50.806;11.586;2023-08-17T10:52:01;4.68;;;4.20;;
47866;SDS011;33628;50.806;11.586;2023-08-17T10:54:36;6.38;;;4.45;;
47866;SDS011;33628;50.806;11.586;2023-08-17T11:00:04;7.03;;;5.03;;
47866;SDS011;33628;50.806;11.586;2023-08-17T11:02:38;5.70;;;5.20;;
47866;SDS011;33628;50.806;11.586;2023-08-17T11:05:05;6.25;;;5.65;;
47866;SDS011;33628;50.806;11.586;2023-08-17T11:07:41;6.50;;;5.28;;
47866;SDS011;33628;50.806;11.586;2023-08-17T11:10:11;7.55;;;5.13;;
47866;SDS011;33628;50.806;11.586;2023-08-17T11:12:41;5.68;;;5.07;;
47866;SDS011;33628;50.806;11.586;2023-08-17T11:15:08;5.30;;;4.80;;
47866;SDS011;33628;50.806;11.586;2023-08-17T11:17:35;5.53;;;4.95;;
47866;SDS011;33628;50.806;11.586;2023-08-17T11:20:07;6.05;;;5.45;;
47866;SDS011;33628;50.806;11.586;2023-08-17T11:22:37;5.95;;;5.35;;
47866;SDS011;33628;50.806;11.586;2023-08-17T11:25:04;6.10;;;5.50;;
47866;SDS011;33628;50.806;11.586;2023-08-17T11:27:57;6.13;;;5.63;;
47866;SDS011;33628;50.806;11.586;2023-08-17T11:30:25;6.20;;;5.60;;
47866;SDS011;33628;50.806;11.586;2023-08-17T11:32:53;10.38;;;5.20;;
47866;SDS011;33628;50.806;11.586;2023-08-17T11:35:23;5.32;;;4.82;;
47866;SDS011;33628;50.806;11.586;2023-08-17T11:37:50;5.93;;;5.38;;
47866;SDS011;33628;50.806;11.586;2023-08-17T11:40:16;6.22;;;5.28;;
47866;SDS011;33628;50.806;11.586;2023-08-17T11:42:44;5.68;;;5.20;;
47866;SDS011;33628;50.806;11.586;2023-08-17T11:45:11;5.90;;;5.38;;
47866;SDS011;33628;50.806;11.586;2023-08-17T11:47:38;5.75;;;4.50;;
47866;SDS011;33628;50.806;11.586;2023-08-17T11:50:06;5.07;;;4.53;;
47866;SDS011;33628;50.806;11.586;2023-08-17T11:52:37;8.10;;;4.65;;
47866;SDS011;33628;50.806;11.586;2023-08-17T11:55:04;5.30;;;4.80;;
47866;SDS011;33628;50.806;11.586;2023-08-17T11:57:32;7.18;;;4.80;;
47866;SDS011;33628;50.806;11.586;2023-08-17T12:00:00;6.90;;;5.20;;
47866;SDS011;33628;50.806;11.586;2023-08-17T12:02:31;4.80;;;4.38;;
47866;SDS011;33628;50.806;11.586;2023-08-17T12:04:57;6.90;;;5.32;;
47866;SDS011;33628;50.806;11.586;2023-08-17T12:07:24;5.35;;;4.85;;
47866;SDS011;33628;50.806;11.586;2023-08-17T12:09:52;5.40;;;4.85;;
47866;SDS011;33628;50.806;11.586;2023-08-17T12:12:19;5.88;;;5.28;;
47866;SDS011;33628;50.806;11.586;2023-08-17T12:14:48;7.07;;;6.38;;
47866;SDS011;33628;50.806;11.586;2023-08-17T12:17:17;7.15;;;5.50;;
47866;SDS011;33628;50.806;11.586;2023-08-17T12:19:48;7.68;;;5.80;;
47866;SDS011;33628;50.806;11.586;2023-08-17T12:22:15;8.23;;;6.03;;
47866;SDS011;33628;50.806;11.586;2023-08-17T12:24:42;7.22;;;6.50;;
47866;SDS011;33628;50.806;11.586;2023-08-17T12:27:11;6.70;;;6.10;;
47866;SDS011;33628;50.806;11.586;2023-08-17T12:29:46;7.72;;;6.30;;
47866;SDS011;33628;50.806;11.586;2023-08-17T12:32:13;8.70;;;6.70;;
47866;SDS011;33628;50.806;11.586;2023-08-17T12:34:43;7.18;;;6.47;;
47866;SDS011;33628;50.806;11.586;2023-08-17T12:37:10;7.65;;;6.85;;
47866;SDS011;33628;50.806;11.586;2023-08-17T12:39:37;8.13;;;6.85;;
47866;SDS011;33628;50.806;11.586;2023-08-17T12:42:04;6.32;;;5.72;;
47866;SDS011;33628;50.806;11.586;2023-08-17T12:44:33;7.05;;;6.35;;
47866;SDS011;33628;50.806;11.586;2023-08-17T12:46:59;7.20;;;6.47;;
47866;SDS011;33628;50.806;11.586;2023-08-17T12:49:26;7.45;;;6.60;;
47866;SDS011;33628;50.806;11.586;2023-08-17T12:51:54;6.95;;;6.20;;
47866;SDS011;33628;50.806;11.586;2023-08-17T12:54:21;8.07;;;6.22;;
47866;SDS011;33628;50.806;11.586;2023-08-17T12:56:48;6.60;;;6.00;;
47866;SDS011;33628;50.806;11.586;2023-08-17T12:59:14;7.10;;;6.38;;
47866;SDS011;33628;50.806;11.586;2023-08-17T13:01:43;9.95;;;6.22;;
47866;SDS011;33628;50.806;11.586;2023-08-17T13:04:09;8.02;;;6.57;;
47866;SDS011;33628;50.806;11.586;2023-08-17T13:06:36;6.47;;;5.88;;
47866;SDS011;33628;50.806;11.586;2023-08-17T13:09:03;7.65;;;6.40;;
47866;SDS011;33628;50.806;11.586;2023-08-17T13:11:31;9.73;;;6.40;;
47866;SDS011;33628;50.806;11.586;2023-08-17T13:13:58;11.73;;;6.40;;
47866;SDS011;33628;50.806;11.586;2023-08-17T13:16:24;8.60;;;6.93;;
47866;SDS011;33628;50.806;11.586;2023-08-17T13:18:52;7.63;;;6.82;;
47866;SDS011;33628;50.806;11.586;2023-08-17T13:21:19;7.78;;;6.90;;
47866;SDS011;33628;50.806;11.586;2023-08-17T13:23:46;7.38;;;6.38;;
47866;SDS011;33628;50.806;11.586;2023-08-17T13:26:13;9.27;;;6.75;;
47866;SDS011;33628;50.806;11.586;2023-08-17T13:28:39;6.78;;;6.18;;
47866;SDS011;33628;50.806;11.586;2023-08-17T13:31:06;8.80;;;6.55;;
47866;SDS011;33628;50.806;11.586;2023-08-17T13:33:32;8.00;;;6.20;;
47866;SDS011;33628;50.806;11.586;2023-08-17T13:36:00;7.10;;;6.40;;
47866;SDS011;33628;50.806;11.586;2023-08-17T13:38:27;7.03;;;6.43;;
47866;SDS011;33628;50.806;11.586;2023-08-17T13:40:54;7.00;;;6.30;;
47866;SDS011;33628;50.806;11.586;2023-08-17T13:43:21;7.03;;;6.05;;
47866;SDS011;33628;50.806;11.586;2023-08-17T13:45:47;6.90;;;5.88;;
47866;SDS011;33628;50.806;11.586;2023-08-17T13:48:17;7.72;;;6.60;;
47866;SDS011;33628;50.806;11.586;2023-08-17T13:50:43;7.18;;;6.47;;
47866;SDS011;33628;50.806;11.586;2023-08-17T13:53:12;9.23;;;6.72;;
47866;SDS011;33628;50.806;11.586;2023-08-17T13:55:39;6.78;;;6.18;;
47866;SDS011;33628;50.806;11.586;2023-08-17T13:58:05;10.15;;;5.55;;
47866;SDS011;33628;50.806;11.586;2023-08-17T14:00:32;7.63;;;5.75;;
47866;SDS011;33628;50.806;11.586;2023-08-17T14:02:59;7.63;;;5.75;;
47866;SDS011;33628;50.806;11.586;2023-08-17T14:05:25;6.20;;;5.70;;
47866;SDS011;33628;50.806;11.586;2023-08-17T14:07:52;6.72;;;5.25;;
47866;SDS011;33628;50.806;11.586;2023-08-17T14:10:20;7.13;;;6.10;;
47866;SDS011;33628;50.806;11.586;2023-08-17T14:12:50;7.72;;;5.75;;
47866;SDS011;33628;50.806;11.586;2023-08-17T14:15:17;6.00;;;5.45;;
47866;SDS011;33628;50.806;11.586;2023-08-17T14:17:43;6.47;;;5.82;;
47866;SDS011;33628;50.806;11.586;2023-08-17T14:20:11;6.13;;;5.63;;
47866;SDS011;33628;50.806;11.586;2023-08-17T14:22:37;6.00;;;5.50;;
47866;SDS011;33628;50.806;11.586;2023-08-17T14:25:04;3.85;;;3.50;;
47866;SDS011;33628;50.806;11.586;2023-08-17T14:27:33;4.90;;;3.40;;
47866;SDS011;33628;50.806;11.586;2023-08-17T14:30:00;4.50;;;3.50;;
47866;SDS011;33628;50.806;11.586;2023-08-17T14:32:28;5.00;;;3.35;;
47866;SDS011;33628;50.806;11.586;2023-08-17T14:34:55;3.72;;;2.75;;
47866;SDS011;33628;50.806;11.586;2023-08-17T14:37:21;4.07;;;3.55;;
47866;SDS011;33628;50.806;11.586;2023-08-17T14:39:48;4.63;;;3.30;;